sensor_id;sensor_type;location;lat;lon;timestamp;temperature;humidity
45012;DHT22;63444;48.148;11.542;2023-04-27T00:01:36;10.10;92.70
45012;DHT22;63444;48.148;11.542;2023-04-27T00:04:10;10.10;92.60
45012;DHT22;63444;48.148;11.542;2023-04-27T00:06:38;10.10;92.60
45012;DHT22;63444;48.148;11.542;2023-04-27T00:09:04;10.00;92.50
45012;DHT22;63444;48.148;11.542;2023-04-27T00:11:31;10.10;92.60
45012;DHT22;63444;48.148;11.542;2023-04-27T00:13:59;10.00;92.50
45012;DHT22;63444;48.148;11.542;2023-04-27T00:16:25;10.00;92.50
45012;DHT22;63444;48.148;11.542;2023-04-27T00:18:51;10.20;92.50
45012;DHT22;63444;48.148;11.542;2023-04-27T00:21:26;10.00;92.50
45012;DHT22;63444;48.148;11.542;2023-04-27T00:23:53;10.00;92.50
45012;DHT22;63444;48.148;11.542;2023-04-27T00:26:19;10.00;92.50
45012;DHT22;63444;48.148;11.542;2023-04-27T00:29:09;9.90;93.00
45012;DHT22;63444;48.148;11.542;2023-04-27T00:31:43;10.00;92.50
45012;DHT22;63444;48.148;11.542;2023-04-27T00:34:09;10.00;92.60
45012;DHT22;63444;48.148;11.542;2023-04-27T00:36:54;10.20;92.90
45012;DHT22;63444;48.148;11.542;2023-04-27T00:39:35;10.10;93.00
45012;DHT22;63444;48.148;11.542;2023-04-27T00:42:48;10.00;93.10
45012;DHT22;63444;48.148;11.542;2023-04-27T00:45:28;10.00;93.10
45012;DHT22;63444;48.148;11.542;2023-04-27T00:47:54;10.00;93.00
45012;DHT22;63444;48.148;11.542;2023-04-27T00:50:29;10.00;93.00
45012;DHT22;63444;48.148;11.542;2023-04-27T00:53:12;10.00;92.90
45012;DHT22;63444;48.148;11.542;2023-04-27T00:55:42;10.20;93.00
45012;DHT22;63444;48.148;11.542;2023-04-27T01:01:01;10.00;93.20
45012;DHT22;63444;48.148;11.542;2023-04-27T01:03:48;10.00;93.20
45012;DHT22;63444;48.148;11.542;2023-04-27T01:06:17;10.00;93.30
45012;DHT22;63444;48.148;11.542;2023-04-27T01:08:48;10.00;93.60
45012;DHT22;63444;48.148;11.542;2023-04-27T01:11:41;10.00;93.70
45012;DHT22;63444;48.148;11.542;2023-04-27T01:14:09;9.90;94.10
45012;DHT22;63444;48.148;11.542;2023-04-27T01:16:41;10.00;93.60
45012;DHT22;63444;48.148;11.542;2023-04-27T01:19:10;10.00;93.60
45012;DHT22;63444;48.148;11.542;2023-04-27T01:21:49;10.00;93.80
45012;DHT22;63444;48.148;11.542;2023-04-27T01:24:22;10.00;94.00
45012;DHT22;63444;48.148;11.542;2023-04-27T01:27:01;10.00;94.20
45012;DHT22;63444;48.148;11.542;2023-04-27T01:29:55;10.00;94.50
45012;DHT22;63444;48.148;11.542;2023-04-27T01:32:27;10.00;94.60
45012;DHT22;63444;48.148;11.542;2023-04-27T01:35:12;9.90;94.90
45012;DHT22;63444;48.148;11.542;2023-04-27T01:37:38;9.90;94.90
45012;DHT22;63444;48.148;11.542;2023-04-27T01:40:23;9.90;95.00
45012;DHT22;63444;48.148;11.542;2023-04-27T01:42:49;9.90;95.10
45012;DHT22;63444;48.148;11.542;2023-04-27T01:45:18;9.90;95.50
45012;DHT22;63444;48.148;11.542;2023-04-27T01:47:50;9.90;95.60
45012;DHT22;63444;48.148;11.542;2023-04-27T01:50:29;9.90;95.30
45012;DHT22;63444;48.148;11.542;2023-04-27T01:53:01;9.90;95.00
45012;DHT22;63444;48.148;11.542;2023-04-27T01:55:39;9.90;95.00
45012;DHT22;63444;48.148;11.542;2023-04-27T01:58:05;9.90;95.20
45012;DHT22;63444;48.148;11.542;2023-04-27T02:00:41;9.90;95.60
45012;DHT22;63444;48.148;11.542;2023-04-27T02:03:07;9.90;95.80
45012;DHT22;63444;48.148;11.542;2023-04-27T02:05:37;9.90;95.70
45012;DHT22;63444;48.148;11.542;2023-04-27T02:08:11;9.90;95.60
45012;DHT22;63444;48.148;11.542;2023-04-27T02:10:37;9.80;95.00
45012;DHT22;63444;48.148;11.542;2023-04-27T02:13:06;9.90;95.10
45012;DHT22;63444;48.148;11.542;2023-04-27T02:15:37;9.70;95.00
45012;DHT22;63444;48.148;11.542;2023-04-27T02:18:15;9.80;95.00
45012;DHT22;63444;48.148;11.542;2023-04-27T02:20:58;9.80;95.10
45012;DHT22;63444;48.148;11.542;2023-04-27T02:23:42;9.80;95.30
45012;DHT22;63444;48.148;11.542;2023-04-27T02:26:17;9.70;95.30
45012;DHT22;63444;48.148;11.542;2023-04-27T02:28:47;9.80;95.30
45012;DHT22;63444;48.148;11.542;2023-04-27T02:31:42;9.70;95.30
45012;DHT22;63444;48.148;11.542;2023-04-27T02:34:21;9.70;95.40
45012;DHT22;63444;48.148;11.542;2023-04-27T02:37:15;9.70;95.60
45012;DHT22;63444;48.148;11.542;2023-04-27T02:39:44;9.70;95.70
45012;DHT22;63444;48.148;11.542;2023-04-27T02:42:34;9.60;95.80
45012;DHT22;63444;48.148;11.542;2023-04-27T02:45:06;9.60;96.20
45012;DHT22;63444;48.148;11.542;2023-04-27T02:47:35;9.50;96.30
45012;DHT22;63444;48.148;11.542;2023-04-27T02:50:16;9.50;96.50
45012;DHT22;63444;48.148;11.542;2023-04-27T02:53:28;9.50;96.60
45012;DHT22;63444;48.148;11.542;2023-04-27T02:55:56;9.40;96.90
45012;DHT22;63444;48.148;11.542;2023-04-27T02:58:34;9.40;96.70
45012;DHT22;63444;48.148;11.542;2023-04-27T03:01:00;9.30;96.30
45012;DHT22;63444;48.148;11.542;2023-04-27T03:03:28;9.30;96.30
45012;DHT22;63444;48.148;11.542;2023-04-27T03:06:00;9.20;96.30
45012;DHT22;63444;48.148;11.542;2023-04-27T03:08:25;9.20;96.40
45012;DHT22;63444;48.148;11.542;2023-04-27T03:11:00;9.30;96.50
45012;DHT22;63444;48.148;11.542;2023-04-27T03:13:31;9.20;96.60
45012;DHT22;63444;48.148;11.542;2023-04-27T03:16:17;9.10;96.70
45012;DHT22;63444;48.148;11.542;2023-04-27T03:18:46;9.20;96.80
45012;DHT22;63444;48.148;11.542;2023-04-27T03:21:19;9.10;96.90
45012;DHT22;63444;48.148;11.542;2023-04-27T03:23:45;9.10;96.90
45012;DHT22;63444;48.148;11.542;2023-04-27T03:26:20;9.10;97.00
45012;DHT22;63444;48.148;11.542;2023-04-27T03:28:58;9.10;97.00
45012;DHT22;63444;48.148;11.542;2023-04-27T03:31:35;9.30;97.30
45012;DHT22;63444;48.148;11.542;2023-04-27T03:34:29;9.10;97.30
45012;DHT22;63444;48.148;11.542;2023-04-27T03:36:56;9.10;97.30
45012;DHT22;63444;48.148;11.542;2023-04-27T03:39:28;9.10;97.20
45012;DHT22;63444;48.148;11.542;2023-04-27T03:42:07;9.10;96.90
45012;DHT22;63444;48.148;11.542;2023-04-27T03:44:35;9.10;96.90
45012;DHT22;63444;48.148;11.542;2023-04-27T03:47:13;9.10;97.00
45012;DHT22;63444;48.148;11.542;2023-04-27T03:49:49;9.10;96.90
45012;DHT22;63444;48.148;11.542;2023-04-27T03:52:15;9.10;96.90
45012;DHT22;63444;48.148;11.542;2023-04-27T03:54:44;9.00;96.90
45012;DHT22;63444;48.148;11.542;2023-04-27T03:57:16;9.00;96.80
45012;DHT22;63444;48.148;11.542;2023-04-27T03:59:51;9.10;96.80
45012;DHT22;63444;48.148;11.542;2023-04-27T04:02:20;9.10;96.80
45012;DHT22;63444;48.148;11.542;2023-04-27T04:04:56;9.10;96.80
45012;DHT22;63444;48.148;11.542;2023-04-27T04:07:22;9.10;96.70
45012;DHT22;63444;48.148;11.542;2023-04-27T04:09:59;9.00;96.90
45012;DHT22;63444;48.148;11.542;2023-04-27T04:12:31;9.10;96.70
45012;DHT22;63444;48.148;11.542;2023-04-27T04:14:59;9.10;96.60
45012;DHT22;63444;48.148;11.542;2023-04-27T04:17:31;9.10;96.80
45012;DHT22;63444;48.148;11.542;2023-04-27T04:20:04;9.10;96.50
45012;DHT22;63444;48.148;11.542;2023-04-27T04:22:39;9.20;96.60
45012;DHT22;63444;48.148;11.542;2023-04-27T04:25:21;9.10;96.70
45012;DHT22;63444;48.148;11.542;2023-04-27T04:27:59;9.20;96.80
45012;DHT22;63444;48.148;11.542;2023-04-27T04:30:45;9.20;97.00
45012;DHT22;63444;48.148;11.542;2023-04-27T04:33:16;9.20;96.90
45012;DHT22;63444;48.148;11.542;2023-04-27T04:35:51;9.20;96.80
45012;DHT22;63444;48.148;11.542;2023-04-27T04:38:18;9.20;97.10
45012;DHT22;63444;48.148;11.542;2023-04-27T04:40:43;9.10;97.20
45012;DHT22;63444;48.148;11.542;2023-04-27T04:43:09;9.00;97.00
45012;DHT22;63444;48.148;11.542;2023-04-27T04:45:35;9.00;97.20
45012;DHT22;63444;48.148;11.542;2023-04-27T04:48:01;8.90;97.50
45012;DHT22;63444;48.148;11.542;2023-04-27T04:50:30;9.00;97.80
45012;DHT22;63444;48.148;11.542;2023-04-27T04:53:08;9.00;97.90
45012;DHT22;63444;48.148;11.542;2023-04-27T04:55:34;9.00;98.20
45012;DHT22;63444;48.148;11.542;2023-04-27T04:57:59;9.00;98.40
45012;DHT22;63444;48.148;11.542;2023-04-27T05:00:26;9.10;98.60
45012;DHT22;63444;48.148;11.542;2023-04-27T05:02:54;9.10;98.70
45012;DHT22;63444;48.148;11.542;2023-04-27T05:05:22;9.10;98.90
45012;DHT22;63444;48.148;11.542;2023-04-27T05:07:48;9.10;98.90
45012;DHT22;63444;48.148;11.542;2023-04-27T05:10:16;9.20;98.70
45012;DHT22;63444;48.148;11.542;2023-04-27T05:12:42;9.20;98.60
45012;DHT22;63444;48.148;11.542;2023-04-27T05:15:09;9.20;98.80
45012;DHT22;63444;48.148;11.542;2023-04-27T05:17:35;9.10;98.90
45012;DHT22;63444;48.148;11.542;2023-04-27T05:20:00;9.20;99.00
45012;DHT22;63444;48.148;11.542;2023-04-27T05:22:29;9.20;99.30
45012;DHT22;63444;48.148;11.542;2023-04-27T05:24:58;9.20;98.70
45012;DHT22;63444;48.148;11.542;2023-04-27T05:27:24;9.20;98.60
45012;DHT22;63444;48.148;11.542;2023-04-27T05:29:55;9.10;98.60
45012;DHT22;63444;48.148;11.542;2023-04-27T05:32:21;9.30;98.80
45012;DHT22;63444;48.148;11.542;2023-04-27T05:34:46;9.30;98.70
45012;DHT22;63444;48.148;11.542;2023-04-27T05:37:12;9.30;98.70
45012;DHT22;63444;48.148;11.542;2023-04-27T05:39:38;9.50;98.80
45012;DHT22;63444;48.148;11.542;2023-04-27T05:42:06;9.40;98.80
45012;DHT22;63444;48.148;11.542;2023-04-27T05:44:32;9.40;99.00
45012;DHT22;63444;48.148;11.542;2023-04-27T05:47:03;9.40;98.90
45012;DHT22;63444;48.148;11.542;2023-04-27T05:49:49;9.40;98.80
45012;DHT22;63444;48.148;11.542;2023-04-27T05:52:18;9.50;98.60
45012;DHT22;63444;48.148;11.542;2023-04-27T05:54:50;9.50;98.40
45012;DHT22;63444;48.148;11.542;2023-04-27T05:57:15;9.60;98.30
45012;DHT22;63444;48.148;11.542;2023-04-27T05:59:42;9.50;98.20
45012;DHT22;63444;48.148;11.542;2023-04-27T06:02:08;9.60;98.20
45012;DHT22;63444;48.148;11.542;2023-04-27T06:04:40;9.60;98.30
45012;DHT22;63444;48.148;11.542;2023-04-27T06:07:12;9.70;98.50
45012;DHT22;63444;48.148;11.542;2023-04-27T06:09:49;9.60;98.80
45012;DHT22;63444;48.148;11.542;2023-04-27T06:12:19;9.60;99.00
45012;DHT22;63444;48.148;11.542;2023-04-27T06:14:47;9.60;99.00
45012;DHT22;63444;48.148;11.542;2023-04-27T06:19:48;9.80;99.20
45012;DHT22;63444;48.148;11.542;2023-04-27T06:22:20;9.80;99.30
45012;DHT22;63444;48.148;11.542;2023-04-27T06:24:46;9.90;99.20
45012;DHT22;63444;48.148;11.542;2023-04-27T06:27:20;9.90;99.00
45012;DHT22;63444;48.148;11.542;2023-04-27T06:29:51;9.80;98.90
45012;DHT22;63444;48.148;11.542;2023-04-27T06:32:24;10.00;98.40
45012;DHT22;63444;48.148;11.542;2023-04-27T06:34:53;10.00;98.40
45012;DHT22;63444;48.148;11.542;2023-04-27T06:37:21;10.10;98.60
45012;DHT22;63444;48.148;11.542;2023-04-27T06:39:47;10.00;98.70
45012;DHT22;63444;48.148;11.542;2023-04-27T06:42:13;10.20;98.80
45012;DHT22;63444;48.148;11.542;2023-04-27T06:44:39;10.10;98.70
45012;DHT22;63444;48.148;11.542;2023-04-27T06:47:04;10.10;98.70
45012;DHT22;63444;48.148;11.542;2023-04-27T06:49:30;10.20;98.80
45012;DHT22;63444;48.148;11.542;2023-04-27T06:51:56;10.30;98.90
45012;DHT22;63444;48.148;11.542;2023-04-27T06:54:22;10.30;98.90
45012;DHT22;63444;48.148;11.542;2023-04-27T06:56:47;10.30;99.00
45012;DHT22;63444;48.148;11.542;2023-04-27T06:59:13;10.30;98.90
45012;DHT22;63444;48.148;11.542;2023-04-27T07:01:38;10.40;98.90
45012;DHT22;63444;48.148;11.542;2023-04-27T07:04:04;10.50;98.80
45012;DHT22;63444;48.148;11.542;2023-04-27T07:06:30;10.50;98.70
45012;DHT22;63444;48.148;11.542;2023-04-27T07:08:57;10.60;98.70
45012;DHT22;63444;48.148;11.542;2023-04-27T07:11:23;10.70;98.60
45012;DHT22;63444;48.148;11.542;2023-04-27T07:13:48;10.70;98.60
45012;DHT22;63444;48.148;11.542;2023-04-27T07:16:15;10.80;98.40
45012;DHT22;63444;48.148;11.542;2023-04-27T07:18:41;10.90;97.90
45012;DHT22;63444;48.148;11.542;2023-04-27T07:21:06;10.90;97.80
45012;DHT22;63444;48.148;11.542;2023-04-27T07:23:32;11.00;97.70
45012;DHT22;63444;48.148;11.542;2023-04-27T07:25:58;11.00;97.70
45012;DHT22;63444;48.148;11.542;2023-04-27T07:28:24;11.10;97.60
45012;DHT22;63444;48.148;11.542;2023-04-27T07:30:50;11.10;97.50
45012;DHT22;63444;48.148;11.542;2023-04-27T07:33:16;11.20;97.40
45012;DHT22;63444;48.148;11.542;2023-04-27T07:35:42;11.30;97.50
45012;DHT22;63444;48.148;11.542;2023-04-27T07:38:07;11.50;97.40
45012;DHT22;63444;48.148;11.542;2023-04-27T07:40:33;11.30;97.20
45012;DHT22;63444;48.148;11.542;2023-04-27T07:42:59;11.40;97.10
45012;DHT22;63444;48.148;11.542;2023-04-27T07:45:25;11.50;96.60
45012;DHT22;63444;48.148;11.542;2023-04-27T07:47:58;11.60;96.30
45012;DHT22;63444;48.148;11.542;2023-04-27T07:50:26;11.70;95.80
45012;DHT22;63444;48.148;11.542;2023-04-27T07:52:52;11.70;95.60
45012;DHT22;63444;48.148;11.542;2023-04-27T07:55:20;11.80;95.80
45012;DHT22;63444;48.148;11.542;2023-04-27T07:57:51;11.80;95.60
45012;DHT22;63444;48.148;11.542;2023-04-27T08:00:17;11.80;95.50
45012;DHT22;63444;48.148;11.542;2023-04-27T08:02:43;11.90;95.30
45012;DHT22;63444;48.148;11.542;2023-04-27T08:05:09;11.90;95.10
45012;DHT22;63444;48.148;11.542;2023-04-27T08:07:34;12.10;94.90
45012;DHT22;63444;48.148;11.542;2023-04-27T08:10:00;12.20;94.80
45012;DHT22;63444;48.148;11.542;2023-04-27T08:12:26;12.20;94.80
45012;DHT22;63444;48.148;11.542;2023-04-27T08:14:52;12.30;94.70
45012;DHT22;63444;48.148;11.542;2023-04-27T08:17:18;12.40;94.60
45012;DHT22;63444;48.148;11.542;2023-04-27T08:19:45;12.50;94.70
45012;DHT22;63444;48.148;11.542;2023-04-27T08:22:15;12.60;94.20
45012;DHT22;63444;48.148;11.542;2023-04-27T08:24:43;12.70;94.10
45012;DHT22;63444;48.148;11.542;2023-04-27T08:27:10;12.80;94.20
45012;DHT22;63444;48.148;11.542;2023-04-27T08:29:35;12.90;94.10
45012;DHT22;63444;48.148;11.542;2023-04-27T08:32:04;13.10;93.90
45012;DHT22;63444;48.148;11.542;2023-04-27T08:34:30;13.20;93.80
45012;DHT22;63444;48.148;11.542;2023-04-27T08:36:56;13.30;93.80
45012;DHT22;63444;48.148;11.542;2023-04-27T08:39:24;13.30;93.70
45012;DHT22;63444;48.148;11.542;2023-04-27T08:41:50;13.50;93.70
45012;DHT22;63444;48.148;11.542;2023-04-27T08:44:16;13.70;93.60
45012;DHT22;63444;48.148;11.542;2023-04-27T08:46:49;13.80;93.40
45012;DHT22;63444;48.148;11.542;2023-04-27T08:49:15;13.90;93.10
45012;DHT22;63444;48.148;11.542;2023-04-27T08:51:42;14.00;92.80
45012;DHT22;63444;48.148;11.542;2023-04-27T08:54:08;14.20;92.60
45012;DHT22;63444;48.148;11.542;2023-04-27T08:56:36;14.50;92.50
45012;DHT22;63444;48.148;11.542;2023-04-27T08:59:02;14.70;91.80
45012;DHT22;63444;48.148;11.542;2023-04-27T09:01:29;14.80;91.80
45012;DHT22;63444;48.148;11.542;2023-04-27T09:04:00;15.10;92.10
45012;DHT22;63444;48.148;11.542;2023-04-27T09:06:34;15.10;91.40
45012;DHT22;63444;48.148;11.542;2023-04-27T09:09:00;15.20;91.20
45012;DHT22;63444;48.148;11.542;2023-04-27T09:11:37;15.30;90.90
45012;DHT22;63444;48.148;11.542;2023-04-27T09:16:41;15.60;90.90
45012;DHT22;63444;48.148;11.542;2023-04-27T09:19:09;15.80;91.00
45012;DHT22;63444;48.148;11.542;2023-04-27T09:21:37;16.00;90.10
45012;DHT22;63444;48.148;11.542;2023-04-27T09:24:10;16.30;88.60
45012;DHT22;63444;48.148;11.542;2023-04-27T09:26:37;16.40;86.90
45012;DHT22;63444;48.148;11.542;2023-04-27T09:29:03;16.50;86.90
45012;DHT22;63444;48.148;11.542;2023-04-27T09:31:35;16.70;86.10
45012;DHT22;63444;48.148;11.542;2023-04-27T09:34:03;16.90;86.00
45012;DHT22;63444;48.148;11.542;2023-04-27T09:36:29;17.10;85.70
45012;DHT22;63444;48.148;11.542;2023-04-27T09:38:56;17.20;86.40
45012;DHT22;63444;48.148;11.542;2023-04-27T09:41:24;17.30;85.30
45012;DHT22;63444;48.148;11.542;2023-04-27T09:43:49;17.30;83.20
45012;DHT22;63444;48.148;11.542;2023-04-27T09:46:16;17.40;84.00
45012;DHT22;63444;48.148;11.542;2023-04-27T09:48:41;17.40;83.20
45012;DHT22;63444;48.148;11.542;2023-04-27T09:51:07;17.40;83.30
45012;DHT22;63444;48.148;11.542;2023-04-27T09:53:37;17.60;83.40
45012;DHT22;63444;48.148;11.542;2023-04-27T09:59:20;17.80;83.10
45012;DHT22;63444;48.148;11.542;2023-04-27T10:01:54;18.00;83.40
45012;DHT22;63444;48.148;11.542;2023-04-27T10:04:26;18.30;82.90
45012;DHT22;63444;48.148;11.542;2023-04-27T10:09:23;18.80;82.00
45012;DHT22;63444;48.148;11.542;2023-04-27T10:11:51;18.80;78.50
45012;DHT22;63444;48.148;11.542;2023-04-27T10:14:19;18.90;78.00
45012;DHT22;63444;48.148;11.542;2023-04-27T10:16:57;18.90;76.50
45012;DHT22;63444;48.148;11.542;2023-04-27T10:19:29;18.80;75.60
45012;DHT22;63444;48.148;11.542;2023-04-27T10:21:56;18.70;76.90
45012;DHT22;63444;48.148;11.542;2023-04-27T10:24:41;18.50;77.60
45012;DHT22;63444;48.148;11.542;2023-04-27T10:27:10;18.40;77.70
45012;DHT22;63444;48.148;11.542;2023-04-27T10:29:45;18.50;77.60
45012;DHT22;63444;48.148;11.542;2023-04-27T10:32:23;18.50;77.50
45012;DHT22;63444;48.148;11.542;2023-04-27T10:35:01;18.50;76.50
45012;DHT22;63444;48.148;11.542;2023-04-27T10:37:38;18.30;76.50
45012;DHT22;63444;48.148;11.542;2023-04-27T10:40:09;18.40;77.20
45012;DHT22;63444;48.148;11.542;2023-04-27T10:42:43;18.50;77.90
45012;DHT22;63444;48.148;11.542;2023-04-27T10:45:11;18.80;77.50
45012;DHT22;63444;48.148;11.542;2023-04-27T10:47:43;19.00;77.20
45012;DHT22;63444;48.148;11.542;2023-04-27T10:50:12;19.20;76.90
45012;DHT22;63444;48.148;11.542;2023-04-27T10:52:48;19.20;76.40
45012;DHT22;63444;48.148;11.542;2023-04-27T10:55:21;19.20;75.70
45012;DHT22;63444;48.148;11.542;2023-04-27T10:57:52;19.10;75.60
45012;DHT22;63444;48.148;11.542;2023-04-27T11:00:23;19.20;76.20
45012;DHT22;63444;48.148;11.542;2023-04-27T11:02:50;19.30;76.00
45012;DHT22;63444;48.148;11.542;2023-04-27T11:05:20;19.50;75.00
45012;DHT22;63444;48.148;11.542;2023-04-27T11:07:47;19.40;74.30
45012;DHT22;63444;48.148;11.542;2023-04-27T11:10:21;19.30;75.10
45012;DHT22;63444;48.148;11.542;2023-04-27T11:12:47;19.30;75.30
45012;DHT22;63444;48.148;11.542;2023-04-27T11:15:13;19.30;75.40
45012;DHT22;63444;48.148;11.542;2023-04-27T11:17:39;19.20;75.30
45012;DHT22;63444;48.148;11.542;2023-04-27T11:20:08;19.30;75.40
45012;DHT22;63444;48.148;11.542;2023-04-27T11:22:43;19.10;76.10
45012;DHT22;63444;48.148;11.542;2023-04-27T11:25:25;19.00;76.00
45012;DHT22;63444;48.148;11.542;2023-04-27T11:27:51;19.10;75.30
45012;DHT22;63444;48.148;11.542;2023-04-27T11:30:23;19.00;75.60
45012;DHT22;63444;48.148;11.542;2023-04-27T11:32:50;19.00;76.20
45012;DHT22;63444;48.148;11.542;2023-04-27T11:35:16;18.90;76.10
45012;DHT22;63444;48.148;11.542;2023-04-27T11:37:43;18.60;75.50
45012;DHT22;63444;48.148;11.542;2023-04-27T11:40:11;18.40;75.90
45012;DHT22;63444;48.148;11.542;2023-04-27T11:42:45;18.30;76.50
45012;DHT22;63444;48.148;11.542;2023-04-27T11:45:27;18.30;76.90
45012;DHT22;63444;48.148;11.542;2023-04-27T11:47:52;18.40;77.00
45012;DHT22;63444;48.148;11.542;2023-04-27T11:50:18;18.40;77.00
45012;DHT22;63444;48.148;11.542;2023-04-27T11:52:49;18.30;78.30
45012;DHT22;63444;48.148;11.542;2023-04-27T11:55:14;18.30;77.90
45012;DHT22;63444;48.148;11.542;2023-04-27T11:57:40;18.40;77.80
45012;DHT22;63444;48.148;11.542;2023-04-27T12:00:07;18.40;77.20
45012;DHT22;63444;48.148;11.542;2023-04-27T12:02:39;18.30;76.90
45012;DHT22;63444;48.148;11.542;2023-04-27T12:05:05;18.20;78.30
45012;DHT22;63444;48.148;11.542;2023-04-27T12:07:34;18.20;78.50
45012;DHT22;63444;48.148;11.542;2023-04-27T12:10:00;18.20;78.70
45012;DHT22;63444;48.148;11.542;2023-04-27T12:12:26;18.20;78.30
45012;DHT22;63444;48.148;11.542;2023-04-27T12:14:52;18.20;78.20
45012;DHT22;63444;48.148;11.542;2023-04-27T12:17:18;18.20;78.00
45012;DHT22;63444;48.148;11.542;2023-04-27T12:19:43;18.20;78.20
45012;DHT22;63444;48.148;11.542;2023-04-27T12:22:09;18.30;78.70
45012;DHT22;63444;48.148;11.542;2023-04-27T12:24:35;18.20;78.30
45012;DHT22;63444;48.148;11.542;2023-04-27T12:27:02;18.20;78.80
45012;DHT22;63444;48.148;11.542;2023-04-27T12:29:28;18.20;78.80
45012;DHT22;63444;48.148;11.542;2023-04-27T12:31:57;18.30;78.50
45012;DHT22;63444;48.148;11.542;2023-04-27T12:34:23;18.40;78.50
45012;DHT22;63444;48.148;11.542;2023-04-27T12:36:52;18.40;78.00
45012;DHT22;63444;48.148;11.542;2023-04-27T12:39:28;18.40;77.90
45012;DHT22;63444;48.148;11.542;2023-04-27T12:41:57;18.50;78.60
45012;DHT22;63444;48.148;11.542;2023-04-27T12:44:23;18.60;77.90
45012;DHT22;63444;48.148;11.542;2023-04-27T12:46:49;18.40;77.90
45012;DHT22;63444;48.148;11.542;2023-04-27T12:49:15;18.50;77.90
45012;DHT22;63444;48.148;11.542;2023-04-27T12:51:41;18.50;77.70
45012;DHT22;63444;48.148;11.542;2023-04-27T12:54:09;18.50;77.80
45012;DHT22;63444;48.148;11.542;2023-04-27T12:56:35;18.60;78.40
45012;DHT22;63444;48.148;11.542;2023-04-27T12:59:10;18.50;77.90
45012;DHT22;63444;48.148;11.542;2023-04-27T13:01:38;18.50;77.80
45012;DHT22;63444;48.148;11.542;2023-04-27T13:04:06;18.50;77.50
45012;DHT22;63444;48.148;11.542;2023-04-27T13:06:31;18.20;77.50
45012;DHT22;63444;48.148;11.542;2023-04-27T13:09:02;18.00;78.50
45012;DHT22;63444;48.148;11.542;2023-04-27T13:11:29;17.80;78.80
45012;DHT22;63444;48.148;11.542;2023-04-27T13:13:55;17.70;79.60
45012;DHT22;63444;48.148;11.542;2023-04-27T13:16:21;17.80;80.20
45012;DHT22;63444;48.148;11.542;2023-04-27T13:18:49;17.90;78.70
45012;DHT22;63444;48.148;11.542;2023-04-27T13:21:19;17.90;78.60
45012;DHT22;63444;48.148;11.542;2023-04-27T13:23:51;17.90;78.60
45012;DHT22;63444;48.148;11.542;2023-04-27T13:26:24;17.90;79.10
45012;DHT22;63444;48.148;11.542;2023-04-27T13:28:53;17.90;79.10
45012;DHT22;63444;48.148;11.542;2023-04-27T13:31:19;17.80;79.90
45012;DHT22;63444;48.148;11.542;2023-04-27T13:33:45;17.80;79.80
45012;DHT22;63444;48.148;11.542;2023-04-27T13:36:11;17.80;79.80
45012;DHT22;63444;48.148;11.542;2023-04-27T13:38:38;17.80;80.60
45012;DHT22;63444;48.148;11.542;2023-04-27T13:41:04;17.70;80.10
45012;DHT22;63444;48.148;11.542;2023-04-27T13:43:30;17.80;79.20
45012;DHT22;63444;48.148;11.542;2023-04-27T13:46:08;17.90;79.30
45012;DHT22;63444;48.148;11.542;2023-04-27T13:48:43;18.20;79.50
45012;DHT22;63444;48.148;11.542;2023-04-27T13:51:08;18.00;79.20
45012;DHT22;63444;48.148;11.542;2023-04-27T13:53:34;18.20;78.90
45012;DHT22;63444;48.148;11.542;2023-04-27T13:56:00;18.30;78.50
45012;DHT22;63444;48.148;11.542;2023-04-27T13:58:26;18.30;78.30
45012;DHT22;63444;48.148;11.542;2023-04-27T14:00:54;18.30;78.30
45012;DHT22;63444;48.148;11.542;2023-04-27T14:03:22;18.40;78.40
45012;DHT22;63444;48.148;11.542;2023-04-27T14:05:48;18.40;78.20
45012;DHT22;63444;48.148;11.542;2023-04-27T14:08:15;18.20;77.90
45012;DHT22;63444;48.148;11.542;2023-04-27T14:10:49;18.10;78.70
45012;DHT22;63444;48.148;11.542;2023-04-27T14:13:14;18.00;78.70
45012;DHT22;63444;48.148;11.542;2023-04-27T14:15:41;18.00;79.00
45012;DHT22;63444;48.148;11.542;2023-04-27T14:18:07;18.00;79.40
45012;DHT22;63444;48.148;11.542;2023-04-27T14:20:33;18.00;79.40
45012;DHT22;63444;48.148;11.542;2023-04-27T14:23:00;18.00;79.40
45012;DHT22;63444;48.148;11.542;2023-04-27T14:25:28;18.00;79.20
45012;DHT22;63444;48.148;11.542;2023-04-27T14:27:58;18.00;79.20
45012;DHT22;63444;48.148;11.542;2023-04-27T14:30:31;18.00;79.30
45012;DHT22;63444;48.148;11.542;2023-04-27T14:32:57;18.00;79.30
45012;DHT22;63444;48.148;11.542;2023-04-27T14:35:23;18.00;79.50
45012;DHT22;63444;48.148;11.542;2023-04-27T14:37:50;18.00;79.80
45012;DHT22;63444;48.148;11.542;2023-04-27T14:40:21;17.90;80.10
45012;DHT22;63444;48.148;11.542;2023-04-27T14:42:47;17.80;79.60
45012;DHT22;63444;48.148;11.542;2023-04-27T14:45:12;17.60;79.70
45012;DHT22;63444;48.148;11.542;2023-04-27T14:47:40;17.60;79.90
45012;DHT22;63444;48.148;11.542;2023-04-27T14:50:09;17.60;79.80
45012;DHT22;63444;48.148;11.542;2023-04-27T14:52:36;17.60;79.90
45012;DHT22;63444;48.148;11.542;2023-04-27T14:55:09;17.70;80.00
45012;DHT22;63444;48.148;11.542;2023-04-27T14:57:35;17.80;80.00
45012;DHT22;63444;48.148;11.542;2023-04-27T15:00:02;17.80;80.60
45012;DHT22;63444;48.148;11.542;2023-04-27T15:02:42;17.90;81.50
45012;DHT22;63444;48.148;11.542;2023-04-27T15:05:11;18.00;80.80
45012;DHT22;63444;48.148;11.542;2023-04-27T15:07:36;17.90;80.60
45012;DHT22;63444;48.148;11.542;2023-04-27T15:10:02;18.10;80.60
45012;DHT22;63444;48.148;11.542;2023-04-27T15:12:28;17.80;80.50
45012;DHT22;63444;48.148;11.542;2023-04-27T15:14:54;17.70;80.70
45012;DHT22;63444;48.148;11.542;2023-04-27T15:17:20;17.80;80.10
45012;DHT22;63444;48.148;11.542;2023-04-27T15:19:45;17.80;80.70
45012;DHT22;63444;48.148;11.542;2023-04-27T15:22:11;17.80;80.50
45012;DHT22;63444;48.148;11.542;2023-04-27T15:24:37;17.80;80.20
45012;DHT22;63444;48.148;11.542;2023-04-27T15:27:03;17.80;80.10
45012;DHT22;63444;48.148;11.542;2023-04-27T15:29:35;18.00;80.50
45012;DHT22;63444;48.148;11.542;2023-04-27T15:32:00;17.80;80.70
45012;DHT22;63444;48.148;11.542;2023-04-27T15:34:29;17.80;80.80
45012;DHT22;63444;48.148;11.542;2023-04-27T15:36:55;17.70;80.20
45012;DHT22;63444;48.148;11.542;2023-04-27T15:39:21;17.60;80.60
45012;DHT22;63444;48.148;11.542;2023-04-27T15:41:47;17.60;80.80
45012;DHT22;63444;48.148;11.542;2023-04-27T15:44:13;17.60;80.90
45012;DHT22;63444;48.148;11.542;2023-04-27T15:46:41;17.50;81.10
45012;DHT22;63444;48.148;11.542;2023-04-27T15:49:09;17.60;81.20
45012;DHT22;63444;48.148;11.542;2023-04-27T15:51:44;17.60;81.40